createdAt,value
2023-03-15T00:01:19.571Z,3.00
2023-03-15T00:03:56.830Z,3.00
2023-03-15T00:06:33.845Z,3.00
2023-03-15T00:09:05.647Z,3.00
2023-03-15T00:11:37.564Z,3.00
2023-03-15T00:14:09.377Z,3.00
2023-03-15T00:16:43.250Z,3.00
2023-03-15T00:19:15.176Z,3.00
2023-03-15T00:21:47.114Z,3.00
2023-03-15T00:24:21.188Z,3.00
2023-03-15T00:26:55.277Z,3.00
2023-03-15T00:29:27.195Z,3.00
2023-03-15T00:31:59.100Z,3.00
2023-03-15T00:34:32.477Z,2.90
2023-03-15T00:37:04.303Z,3.00
2023-03-15T00:39:38.011Z,3.00
2023-03-15T00:42:15.618Z,2.90
2023-03-15T00:44:50.625Z,3.00
2023-03-15T00:47:22.658Z,2.90
2023-03-15T00:49:54.403Z,2.90
2023-03-15T00:52:26.288Z,2.90
2023-03-15T00:54:58.050Z,2.90
2023-03-15T00:57:30.212Z,2.90
2023-03-15T01:00:08.843Z,2.90
2023-03-15T01:02:41.061Z,2.90
2023-03-15T01:05:13.607Z,2.90
2023-03-15T01:07:45.733Z,2.90
2023-03-15T01:10:18.254Z,2.80
2023-03-15T01:12:50.977Z,2.80
2023-03-15T01:15:22.765Z,2.70
2023-03-15T01:17:55.864Z,2.80
2023-03-15T01:20:28.122Z,2.80
2023-03-15T01:22:59.963Z,2.70
2023-03-15T01:25:31.787Z,2.70
2023-03-15T01:28:03.713Z,2.70
2023-03-15T01:30:37.814Z,2.70
2023-03-15T01:33:09.689Z,2.70
2023-03-15T01:35:41.471Z,2.60
2023-03-15T01:38:13.354Z,2.60
2023-03-15T01:40:45.867Z,2.70
2023-03-15T01:43:18.979Z,2.60
2023-03-15T01:45:53.755Z,2.60
2023-03-15T01:48:32.748Z,2.60
2023-03-15T01:51:22.834Z,2.60
2023-03-15T01:53:57.666Z,2.60
2023-03-15T01:56:30.589Z,2.60
2023-03-15T01:59:04.341Z,2.50
2023-03-15T02:01:38.134Z,2.50
2023-03-15T02:04:11.607Z,2.50
2023-03-15T02:06:46.719Z,2.50
2023-03-15T02:09:27.985Z,2.50
2023-03-15T02:11:59.875Z,2.60
2023-03-15T02:14:32.542Z,2.50
2023-03-15T02:17:04.422Z,2.60
2023-03-15T02:19:39.013Z,2.60
2023-03-15T02:22:12.165Z,2.60
2023-03-15T02:24:52.853Z,2.60
2023-03-15T02:27:32.236Z,2.50
2023-03-15T02:30:04.469Z,2.50
2023-03-15T02:32:36.363Z,2.50
2023-03-15T02:35:08.419Z,2.40
2023-03-15T02:37:45.983Z,2.40
2023-03-15T02:40:19.304Z,2.40
2023-03-15T02:42:56.308Z,2.30
2023-03-15T02:45:32.044Z,2.20
2023-03-15T02:48:05.175Z,2.20
2023-03-15T02:50:37.081Z,2.10
2023-03-15T02:53:09.977Z,2.10
2023-03-15T02:55:41.804Z,2.10
2023-03-15T02:58:13.570Z,2.10
2023-03-15T03:00:45.393Z,2.00
2023-03-15T03:03:17.151Z,2.00
2023-03-15T03:05:49.104Z,2.00
2023-03-15T03:08:23.225Z,2.00
2023-03-15T03:10:55.100Z,2.00
2023-03-15T03:13:26.939Z,2.00
2023-03-15T03:15:58.901Z,1.90
2023-03-15T03:18:31.954Z,1.90
2023-03-15T03:21:06.707Z,1.90
2023-03-15T03:23:38.572Z,1.90
2023-03-15T03:26:16.722Z,1.90
2023-03-15T03:28:49.721Z,1.90
2023-03-15T03:31:23.277Z,1.90
2023-03-15T03:34:00.633Z,1.80
2023-03-15T03:36:32.864Z,1.80
2023-03-15T03:39:04.619Z,1.80
2023-03-15T03:41:36.586Z,1.70
2023-03-15T03:44:10.854Z,1.70
2023-03-15T03:46:42.711Z,1.70
2023-03-15T03:49:14.933Z,1.70
2023-03-15T03:51:46.758Z,1.70
2023-03-15T03:54:21.449Z,1.70
2023-03-15T03:56:53.332Z,1.70
2023-03-15T03:59:25.078Z,1.70
2023-03-15T04:01:56.898Z,1.70
2023-03-15T04:04:30.875Z,1.80
2023-03-15T04:07:02.880Z,1.80
2023-03-15T04:09:37.715Z,1.80
2023-03-15T04:12:09.954Z,1.80
2023-03-15T04:14:41.941Z,1.70
2023-03-15T04:17:13.789Z,1.70
2023-03-15T04:19:48.225Z,1.60
2023-03-15T04:22:20.124Z,1.50
2023-03-15T04:24:51.914Z,1.50
2023-03-15T04:27:26.103Z,1.40
2023-03-15T04:29:57.911Z,1.40
2023-03-15T04:32:29.725Z,1.40
2023-03-15T04:35:02.228Z,1.50
2023-03-15T04:37:34.061Z,1.50
2023-03-15T04:40:09.297Z,1.60
2023-03-15T04:42:43.457Z,1.60
2023-03-15T04:45:15.282Z,1.70
2023-03-15T04:47:49.721Z,1.70
2023-03-15T04:50:22.565Z,1.70
2023-03-15T04:52:54.403Z,1.70
2023-03-15T04:55:26.251Z,1.70
2023-03-15T04:57:58.479Z,1.60
2023-03-15T05:00:30.385Z,1.60
2023-03-15T05:03:02.228Z,1.60
2023-03-15T05:05:34.094Z,1.50
2023-03-15T05:08:08.370Z,1.50
2023-03-15T05:10:40.155Z,1.40
2023-03-15T05:13:14.465Z,1.40
2023-03-15T05:15:46.225Z,1.30
2023-03-15T05:18:18.213Z,1.40
2023-03-15T05:20:50.256Z,1.40
2023-03-15T05:23:23.423Z,1.40
2023-03-15T05:25:58.143Z,1.50
2023-03-15T05:28:29.963Z,1.50
2023-03-15T05:31:02.964Z,1.60
2023-03-15T05:33:34.759Z,1.70
2023-03-15T05:36:06.640Z,1.70
2023-03-15T05:38:38.448Z,1.80
2023-03-15T05:41:10.316Z,1.90
2023-03-15T05:43:42.148Z,1.90
2023-03-15T05:46:13.935Z,2.00
2023-03-15T05:48:45.784Z,2.00
2023-03-15T05:51:17.569Z,1.90
2023-03-15T05:53:49.431Z,2.00
2023-03-15T05:56:21.227Z,2.00
2023-03-15T05:58:53.176Z,2.10
2023-03-15T06:01:25.120Z,2.20
2023-03-15T06:03:57.064Z,2.30
2023-03-15T06:06:28.924Z,2.40
2023-03-15T06:09:00.864Z,2.40
2023-03-15T06:11:32.658Z,2.50
2023-03-15T06:14:04.569Z,2.50
2023-03-15T06:16:36.385Z,2.60
2023-03-15T06:19:08.316Z,2.60
2023-03-15T06:21:40.106Z,2.50
2023-03-15T06:24:12.238Z,2.40
2023-03-15T06:26:44.024Z,2.40
2023-03-15T06:29:17.330Z,2.40
2023-03-15T06:31:52.883Z,2.40
2023-03-15T06:34:27.189Z,2.60
2023-03-15T06:36:58.977Z,2.70
2023-03-15T06:39:34.450Z,2.70
2023-03-15T06:42:08.417Z,2.80
2023-03-15T06:44:41.464Z,3.10
2023-03-15T06:47:15.627Z,3.30
2023-03-15T06:49:50.504Z,4.30
2023-03-15T06:52:22.262Z,5.90
2023-03-15T06:54:54.015Z,7.60
2023-03-15T06:57:25.874Z,9.10
2023-03-15T06:59:57.659Z,9.90
2023-03-15T07:02:37.149Z,10.40
2023-03-15T07:05:09.221Z,9.60
2023-03-15T07:07:41.090Z,9.80
2023-03-15T07:10:12.934Z,10.20
2023-03-15T07:12:47.045Z,9.90
2023-03-15T07:15:18.852Z,8.90
2023-03-15T07:17:50.651Z,8.50
2023-03-15T07:20:22.444Z,8.00
2023-03-15T07:22:54.208Z,7.80
2023-03-15T07:25:26.148Z,7.30
2023-03-15T07:27:57.910Z,7.00
2023-03-15T07:30:29.843Z,7.00
2023-03-15T07:33:01.775Z,7.00
2023-03-15T07:35:33.624Z,6.70
2023-03-15T07:38:05.421Z,6.90
2023-03-15T07:40:37.236Z,6.90
2023-03-15T07:43:11.214Z,7.00
2023-03-15T07:45:43.225Z,6.70
2023-03-15T07:48:17.302Z,6.50
2023-03-15T07:50:49.108Z,6.40
2023-03-15T07:53:20.897Z,6.20
2023-03-15T07:55:52.769Z,6.10
2023-03-15T07:58:25.073Z,6.00
2023-03-15T08:00:57.592Z,6.00
2023-03-15T08:03:29.471Z,6.10
2023-03-15T08:06:01.490Z,6.00
2023-03-15T08:08:33.354Z,6.20
2023-03-15T08:11:05.598Z,6.40
2023-03-15T08:13:37.349Z,6.20
2023-03-15T08:16:09.476Z,5.80
2023-03-15T08:18:41.332Z,5.70
2023-03-15T08:21:13.142Z,5.70
2023-03-15T08:23:44.895Z,5.60
2023-03-15T08:26:19.133Z,5.80
2023-03-15T08:28:55.551Z,5.90
2023-03-15T08:31:27.478Z,5.90
2023-03-15T08:33:59.318Z,5.80
2023-03-15T08:36:34.547Z,5.80
2023-03-15T08:39:06.365Z,6.00
2023-03-15T08:41:38.210Z,6.30
2023-03-15T08:44:10.229Z,6.30
2023-03-15T08:46:44.628Z,6.20
2023-03-15T08:49:16.428Z,6.20
2023-03-15T08:51:51.195Z,5.90
2023-03-15T08:54:23.610Z,5.90
2023-03-15T08:56:55.425Z,5.80
2023-03-15T08:59:32.177Z,5.80
2023-03-15T09:02:04.519Z,5.90
2023-03-15T09:04:36.351Z,6.10
2023-03-15T09:07:08.217Z,6.00
2023-03-15T09:09:40.027Z,6.00
2023-03-15T09:12:11.931Z,5.90
2023-03-15T09:14:44.300Z,5.80
2023-03-15T09:17:18.374Z,5.90
2023-03-15T09:19:50.155Z,5.80
2023-03-15T09:22:38.571Z,5.80
2023-03-15T09:25:11.501Z,5.70
2023-03-15T09:27:43.322Z,5.90
2023-03-15T09:30:15.486Z,6.00
2023-03-15T09:32:47.445Z,6.10
2023-03-15T09:35:20.076Z,6.40
2023-03-15T09:37:52.069Z,6.60
2023-03-15T09:40:34.569Z,6.90
2023-03-15T09:43:06.347Z,7.10
2023-03-15T09:45:59.651Z,7.10
2023-03-15T09:48:38.036Z,6.90
2023-03-15T09:51:18.666Z,6.40
2023-03-15T09:53:59.407Z,6.10
2023-03-15T09:56:45.684Z,5.90
2023-03-15T09:59:22.877Z,5.90
2023-03-15T10:01:56.247Z,6.00
2023-03-15T10:04:34.797Z,6.10
2023-03-15T10:07:07.501Z,6.20
2023-03-15T10:09:39.537Z,6.40
2023-03-15T10:12:44.216Z,6.50
2023-03-15T10:15:16.160Z,6.50
2023-03-15T10:18:00.135Z,6.40
2023-03-15T10:20:38.549Z,6.40
2023-03-15T10:23:15.790Z,6.50
2023-03-15T10:25:49.123Z,6.80
2023-03-15T10:28:21.152Z,7.00
2023-03-15T10:30:53.286Z,7.00
2023-03-15T10:33:32.467Z,7.20
2023-03-15T10:36:13.632Z,7.30
2023-03-15T10:38:46.307Z,7.20
2023-03-15T10:41:37.494Z,7.10
2023-03-15T10:44:35.325Z,6.90
2023-03-15T10:47:22.592Z,6.60
2023-03-15T10:49:59.252Z,6.30
2023-03-15T10:52:38.919Z,6.10
2023-03-15T10:55:22.023Z,6.10
2023-03-15T10:57:55.574Z,6.00
2023-03-15T11:00:29.922Z,6.00
2023-03-15T11:03:06.798Z,5.80
2023-03-15T11:05:40.799Z,5.80
2023-03-15T11:08:17.568Z,5.70
2023-03-15T11:10:59.566Z,5.60
2023-03-15T11:13:32.408Z,5.50
2023-03-15T11:16:07.060Z,5.40
2023-03-15T11:18:44.932Z,5.30
2023-03-15T11:21:19.928Z,5.20
2023-03-15T11:23:51.932Z,5.30
2023-03-15T11:26:33.218Z,5.40
2023-03-15T11:29:21.574Z,5.40
2023-03-15T11:31:54.373Z,5.40
2023-03-15T11:34:44.573Z,5.60
2023-03-15T11:37:25.159Z,5.80
2023-03-15T11:40:23.199Z,6.00
2023-03-15T11:42:56.777Z,6.20
2023-03-15T11:45:38.862Z,6.30
2023-03-15T11:48:18.169Z,6.30
2023-03-15T11:50:54.885Z,6.50
2023-03-15T11:53:30.302Z,6.50
2023-03-15T11:56:20.692Z,6.50
2023-03-15T11:59:04.827Z,6.60
2023-03-15T12:01:37.014Z,6.80
2023-03-15T12:04:27.762Z,6.80
2023-03-15T12:07:06.782Z,6.90
2023-03-15T12:09:42.234Z,6.80
2023-03-15T12:12:26.081Z,6.80
2023-03-15T12:15:16.746Z,6.80
2023-03-15T12:17:54.180Z,6.70
2023-03-15T12:20:39.684Z,6.80
2023-03-15T12:23:17.655Z,6.80
2023-03-15T12:26:07.823Z,6.70
2023-03-15T12:28:50.661Z,6.70
2023-03-15T12:31:23.046Z,6.60
2023-03-15T12:33:57.859Z,6.50
2023-03-15T12:36:36.163Z,6.60
2023-03-15T12:39:19.252Z,6.80
2023-03-15T12:41:51.658Z,6.80
2023-03-15T12:44:32.702Z,6.80
2023-03-15T12:47:05.848Z,7.00
2023-03-15T12:49:47.331Z,7.00
2023-03-15T12:52:19.075Z,7.00
2023-03-15T12:55:12.007Z,7.00
2023-03-15T12:57:48.734Z,7.20
2023-03-15T13:00:21.973Z,7.30
2023-03-15T13:03:04.244Z,6.90
2023-03-15T13:06:03.306Z,6.50
2023-03-15T13:08:41.680Z,6.30
2023-03-15T13:11:46.084Z,6.00
2023-03-15T13:14:33.113Z,5.90
2023-03-15T13:17:07.521Z,6.00
2023-03-15T13:19:41.914Z,6.20
2023-03-15T13:22:19.622Z,6.30
2023-03-15T13:24:54.558Z,6.40
2023-03-15T13:27:34.735Z,6.70
2023-03-15T13:30:26.745Z,7.30
2023-03-15T13:33:10.603Z,7.70
2023-03-15T13:35:45.458Z,7.90
2023-03-15T13:38:23.094Z,8.00
2023-03-15T13:40:55.700Z,8.10
2023-03-15T13:43:32.212Z,8.30
2023-03-15T13:46:04.253Z,8.40
2023-03-15T13:48:37.942Z,8.30
2023-03-15T13:51:12.474Z,7.80
2023-03-15T13:53:49.809Z,7.70
2023-03-15T13:56:29.494Z,7.50
2023-03-15T13:59:02.737Z,7.30
2023-03-15T14:01:37.398Z,7.30
2023-03-15T14:04:12.920Z,7.00
2023-03-15T14:06:45.866Z,6.60
2023-03-15T14:09:20.157Z,6.40
2023-03-15T14:12:02.688Z,6.30
2023-03-15T14:14:38.845Z,6.30
2023-03-15T14:17:29.995Z,6.40
2023-03-15T14:20:09.231Z,6.60
2023-03-15T14:22:45.296Z,7.10
2023-03-15T14:25:25.878Z,7.50
2023-03-15T14:28:04.913Z,7.30
2023-03-15T14:30:37.517Z,6.90
2023-03-15T14:33:25.003Z,6.90
2023-03-15T14:36:03.562Z,6.50
2023-03-15T14:38:37.172Z,6.10
2023-03-15T14:41:20.480Z,5.90
2023-03-15T14:43:52.824Z,5.80
2023-03-15T14:46:29.881Z,5.70
2023-03-15T14:49:01.986Z,5.60
2023-03-15T14:51:34.578Z,5.70
2023-03-15T14:54:09.013Z,5.60
2023-03-15T14:56:44.363Z,5.50
2023-03-15T14:59:16.606Z,5.50
2023-03-15T15:01:53.104Z,5.50
2023-03-15T15:04:30.075Z,5.50
2023-03-15T15:07:03.332Z,5.50
2023-03-15T15:09:39.683Z,5.50
2023-03-15T15:12:12.076Z,5.50
2023-03-15T15:14:44.076Z,5.40
2023-03-15T15:17:16.312Z,5.40
2023-03-15T15:19:49.337Z,5.40
2023-03-15T15:22:21.526Z,5.50
2023-03-15T15:24:53.372Z,5.40
2023-03-15T15:27:26.108Z,5.50
2023-03-15T15:29:57.832Z,5.50
2023-03-15T15:32:29.798Z,5.40
2023-03-15T15:35:02.584Z,5.30
2023-03-15T15:37:35.098Z,5.30
2023-03-15T15:40:12.082Z,5.30
2023-03-15T15:42:46.767Z,5.30
2023-03-15T15:45:18.950Z,5.30
2023-03-15T15:47:51.184Z,5.30
2023-03-15T15:50:22.948Z,5.20
2023-03-15T15:52:54.928Z,5.00
2023-03-15T15:55:30.038Z,4.90
2023-03-15T15:58:03.202Z,4.80
2023-03-15T16:00:35.111Z,4.70
2023-03-15T16:03:15.206Z,4.50
2023-03-15T16:05:47.163Z,4.40
2023-03-15T16:08:23.071Z,4.20
2023-03-15T16:10:54.808Z,4.10
2023-03-15T16:13:26.659Z,3.90
2023-03-15T16:15:58.509Z,3.80
2023-03-15T16:18:32.730Z,3.70
2023-03-15T16:21:04.548Z,3.60
2023-03-15T16:23:36.354Z,3.50
2023-03-15T16:26:12.502Z,3.40
2023-03-15T16:28:44.379Z,3.30
2023-03-15T16:31:16.127Z,3.20
2023-03-15T16:33:50.860Z,3.20
2023-03-15T16:36:22.637Z,3.10
2023-03-15T16:38:55.279Z,3.00
2023-03-15T16:41:27.042Z,2.90
2023-03-15T16:43:58.806Z,2.90
2023-03-15T16:46:30.665Z,2.80
2023-03-15T16:49:02.614Z,2.80
2023-03-15T16:51:35.369Z,2.70
2023-03-15T16:54:19.600Z,2.70
2023-03-15T16:56:56.340Z,2.60
2023-03-15T16:59:28.684Z,2.50
2023-03-15T17:02:00.555Z,2.50
2023-03-15T17:04:32.424Z,2.40
2023-03-15T17:07:04.520Z,2.40
2023-03-15T17:09:38.879Z,2.30
2023-03-15T17:12:19.712Z,2.30
2023-03-15T17:14:52.734Z,2.20
2023-03-15T17:17:26.505Z,2.20
2023-03-15T17:19:58.288Z,2.10
2023-03-15T17:22:30.098Z,2.00
2023-03-15T17:25:01.989Z,2.00
2023-03-15T17:27:38.268Z,1.90
2023-03-15T17:30:19.208Z,1.90
2023-03-15T17:32:51.047Z,1.80
2023-03-15T17:35:24.216Z,1.80
2023-03-15T17:37:56.073Z,1.70
2023-03-15T17:40:29.308Z,1.70
2023-03-15T17:43:02.283Z,1.60
2023-03-15T17:45:34.837Z,1.60
2023-03-15T17:48:09.878Z,1.60
2023-03-15T17:50:43.287Z,1.50
2023-03-15T17:53:16.621Z,1.50
2023-03-15T17:55:49.234Z,1.50
2023-03-15T17:58:22.275Z,1.50
2023-03-15T18:00:57.501Z,1.40
2023-03-15T18:03:29.326Z,1.40
2023-03-15T18:06:05.249Z,1.30
2023-03-15T18:08:39.372Z,1.30
2023-03-15T18:11:21.232Z,1.20
2023-03-15T18:13:53.140Z,1.20
2023-03-15T18:16:25.277Z,1.20
2023-03-15T18:18:57.479Z,1.20
2023-03-15T18:21:29.440Z,1.10
2023-03-15T18:24:01.290Z,1.20
2023-03-15T18:26:33.103Z,1.20
2023-03-15T18:29:04.876Z,1.20
2023-03-15T18:31:36.789Z,1.20
2023-03-15T18:34:12.618Z,1.20
2023-03-15T18:36:46.901Z,1.20
2023-03-15T18:39:18.709Z,1.10
2023-03-15T18:41:50.758Z,1.10
2023-03-15T18:44:22.730Z,1.10
2023-03-15T18:46:54.572Z,1.10
2023-03-15T18:49:28.450Z,1.00
2023-03-15T18:52:02.504Z,1.00
2023-03-15T18:54:34.385Z,0.90
2023-03-15T18:57:06.338Z,0.90
2023-03-15T18:59:38.086Z,0.80
2023-03-15T19:02:12.284Z,0.80
2023-03-15T19:04:46.174Z,0.70
2023-03-15T19:07:20.136Z,0.70
2023-03-15T19:09:52.594Z,0.70
2023-03-15T19:12:25.701Z,0.60
2023-03-15T19:14:57.632Z,0.60
2023-03-15T19:17:29.659Z,0.60
2023-03-15T19:20:01.449Z,0.60
2023-03-15T19:22:33.913Z,0.50
2023-03-15T19:25:06.141Z,0.50
2023-03-15T19:27:37.988Z,0.40
2023-03-15T19:30:11.917Z,0.40
2023-03-15T19:32:45.847Z,0.30
2023-03-15T19:35:20.577Z,0.30
2023-03-15T19:37:52.838Z,0.30
2023-03-15T19:40:24.688Z,0.30
2023-03-15T19:42:56.494Z,0.20
2023-03-15T19:45:28.287Z,0.20
2023-03-15T19:48:00.127Z,0.20
2023-03-15T19:50:33.968Z,0.10
2023-03-15T19:53:05.920Z,0.10
2023-03-15T19:55:37.705Z,0.10
2023-03-15T19:58:09.605Z,0.10
2023-03-15T20:00:41.430Z,0.10
2023-03-15T20:03:13.334Z,0.10
2023-03-15T20:05:48.413Z,0.10
2023-03-15T20:08:20.743Z,0.10
2023-03-15T20:10:58.944Z,0.20
2023-03-15T20:13:32.833Z,0.20
2023-03-15T20:16:08.213Z,0.20
2023-03-15T20:18:40.399Z,0.20
2023-03-15T20:21:14.398Z,0.20
2023-03-15T20:23:48.594Z,0.20
2023-03-15T20:26:22.896Z,0.20
2023-03-15T20:28:58.053Z,0.10
2023-03-15T20:31:32.252Z,0.10
2023-03-15T20:34:05.952Z,0.10
2023-03-15T20:36:37.773Z,0.10
2023-03-15T20:39:10.144Z,0.10
2023-03-15T20:41:41.994Z,0.10
2023-03-15T20:44:14.366Z,0.10
2023-03-15T20:46:47.267Z,0.10
2023-03-15T20:49:19.172Z,0.00
2023-03-15T20:51:51.073Z,0.00
2023-03-15T20:54:22.894Z,0.00
2023-03-15T20:56:54.695Z,-0.10
2023-03-15T20:59:26.692Z,0.00
2023-03-15T21:02:01.065Z,-0.10
2023-03-15T21:04:33.315Z,-0.10
2023-03-15T21:07:05.120Z,-0.10
2023-03-15T21:09:37.233Z,-0.10
2023-03-15T21:12:09.113Z,-0.10
2023-03-15T21:14:41.547Z,-0.10
2023-03-15T21:17:14.726Z,-0.10
2023-03-15T21:19:49.049Z,-0.20
2023-03-15T21:22:23.473Z,-0.20
2023-03-15T21:24:56.402Z,-0.20
2023-03-15T21:27:28.625Z,-0.20
2023-03-15T21:30:00.564Z,-0.20
2023-03-15T21:32:35.305Z,-0.10
2023-03-15T21:35:10.109Z,-0.10
2023-03-15T21:37:47.031Z,-0.20
2023-03-15T21:40:22.099Z,-0.20
2023-03-15T21:42:54.006Z,-0.20
2023-03-15T21:45:29.097Z,-0.20
2023-03-15T21:48:03.292Z,-0.20
2023-03-15T21:50:35.713Z,-0.20
2023-03-15T21:53:07.858Z,-0.20
2023-03-15T21:55:43.221Z,-0.20
2023-03-15T21:58:15.151Z,-0.30
2023-03-15T22:00:47.093Z,-0.30
2023-03-15T22:03:18.939Z,-0.30
2023-03-15T22:05:57.286Z,-0.30
2023-03-15T22:08:30.107Z,-0.30
2023-03-15T22:11:02.001Z,-0.30
2023-03-15T22:13:34.258Z,-0.30
2023-03-15T22:16:08.432Z,-0.30
2023-03-15T22:18:40.351Z,-0.30
2023-03-15T22:21:12.159Z,-0.30
2023-03-15T22:23:44.185Z,-0.30
2023-03-15T22:26:18.185Z,-0.30
2023-03-15T22:28:52.559Z,-0.20
2023-03-15T22:31:24.457Z,-0.30
2023-03-15T22:33:56.244Z,-0.20
2023-03-15T22:36:29.244Z,-0.30
2023-03-15T22:39:05.875Z,-0.20
2023-03-15T22:41:37.868Z,-0.20
2023-03-15T22:44:12.113Z,-0.30
2023-03-15T22:46:46.156Z,-0.30
2023-03-15T22:49:23.794Z,-0.30
2023-03-15T22:51:55.651Z,-0.30
2023-03-15T22:54:27.429Z,-0.30
2023-03-15T22:57:01.598Z,-0.30
2023-03-15T22:59:33.432Z,-0.30
2023-03-15T23:02:05.374Z,-0.30
2023-03-15T23:04:37.388Z,-0.30
2023-03-15T23:07:09.316Z,-0.30
2023-03-15T23:09:41.143Z,-0.30
2023-03-15T23:12:13.106Z,-0.30
2023-03-15T23:14:44.953Z,-0.40
2023-03-15T23:17:16.857Z,-0.30
2023-03-15T23:19:48.736Z,-0.30
2023-03-15T23:22:20.593Z,-0.30
2023-03-15T23:24:52.539Z,-0.40
2023-03-15T23:27:26.187Z,-0.40
2023-03-15T23:30:00.389Z,-0.40
2023-03-15T23:32:32.497Z,-0.40
2023-03-15T23:35:05.334Z,-0.40
2023-03-15T23:37:37.165Z,-0.40
2023-03-15T23:40:14.008Z,-0.40
2023-03-15T23:42:46.316Z,-0.40
2023-03-15T23:45:18.163Z,-0.50
2023-03-15T23:47:49.991Z,-0.50
2023-03-15T23:50:26.003Z,-0.50
2023-03-15T23:52:58.382Z,-0.50
2023-03-15T23:55:31.149Z,-0.50
2023-03-15T23:58:03.675Z,-0.60
